sensor_id;sensor_type;location;lat;lon;timestamp;pressure;altitude;pressure_sealevel;temperature;humidity
61697;BME280;47610;52.252;20.922;2022-11-03T00:05:17;100805.05;;;9.02;78.36
61697;BME280;47610;52.252;20.922;2022-11-03T00:10:41;100799.58;;;8.95;78.16
61697;BME280;47610;52.252;20.922;2022-11-03T00:16:06;100811.35;;;8.88;78.05
61697;BME280;47610;52.252;20.922;2022-11-03T00:21:30;100799.69;;;8.82;78.10
61697;BME280;47610;52.252;20.922;2022-11-03T00:26:54;100807.46;;;8.77;78.13
61697;BME280;47610;52.252;20.922;2022-11-03T00:32:18;100811.14;;;8.72;78.01
61697;BME280;47610;52.252;20.922;2022-11-03T00:37:44;100815.23;;;8.64;77.85
61697;BME280;47610;52.252;20.922;2022-11-03T00:43:07;100818.05;;;8.57;77.85
61697;BME280;47610;52.252;20.922;2022-11-03T00:48:30;100821.15;;;8.52;77.93
61697;BME280;47610;52.252;20.922;2022-11-03T00:53:55;100822.48;;;8.44;77.82
61697;BME280;47610;52.252;20.922;2022-11-03T00:59:19;100824.98;;;8.38;77.73
61697;BME280;47610;52.252;20.922;2022-11-03T01:04:43;100824.36;;;8.30;77.65
61697;BME280;47610;52.252;20.922;2022-11-03T01:10:10;100832.77;;;8.25;77.82
61697;BME280;47610;52.252;20.922;2022-11-03T01:15:35;100832.00;;;8.18;77.64
61697;BME280;47610;52.252;20.922;2022-11-03T01:20:59;100834.46;;;8.14;77.60
61697;BME280;47610;52.252;20.922;2022-11-03T01:26:22;100838.41;;;8.08;77.66
61697;BME280;47610;52.252;20.922;2022-11-03T01:31:46;100841.36;;;8.04;77.56
61697;BME280;47610;52.252;20.922;2022-11-03T01:37:10;100839.34;;;7.98;77.59
61697;BME280;47610;52.252;20.922;2022-11-03T01:42:32;100844.54;;;7.95;77.77
61697;BME280;47610;52.252;20.922;2022-11-03T01:47:55;100843.06;;;7.92;77.48
61697;BME280;47610;52.252;20.922;2022-11-03T01:53:21;100841.93;;;7.87;77.89
61697;BME280;47610;52.252;20.922;2022-11-03T01:58:49;100846.43;;;7.81;77.43
61697;BME280;47610;52.252;20.922;2022-11-03T02:04:15;100839.69;;;7.75;77.90
61697;BME280;47610;52.252;20.922;2022-11-03T02:09:42;100835.42;;;7.70;77.86
61697;BME280;47610;52.252;20.922;2022-11-03T02:15:10;100837.98;;;7.67;78.05
61697;BME280;47610;52.252;20.922;2022-11-03T02:20:35;100843.51;;;7.60;77.94
61697;BME280;47610;52.252;20.922;2022-11-03T02:26:00;100846.16;;;7.55;78.27
61697;BME280;47610;52.252;20.922;2022-11-03T02:31:27;100849.98;;;7.49;78.41
61697;BME280;47610;52.252;20.922;2022-11-03T02:36:57;100846.08;;;7.45;78.53
61697;BME280;47610;52.252;20.922;2022-11-03T02:42:25;100848.23;;;7.41;78.71
61697;BME280;47610;52.252;20.922;2022-11-03T02:47:50;100850.54;;;7.35;78.93
61697;BME280;47610;52.252;20.922;2022-11-03T02:53:16;100857.27;;;7.30;78.91
61697;BME280;47610;52.252;20.922;2022-11-03T02:58:43;100859.33;;;7.26;79.38
61697;BME280;47610;52.252;20.922;2022-11-03T03:04:12;100859.17;;;7.22;79.38
61697;BME280;47610;52.252;20.922;2022-11-03T03:09:45;100863.39;;;7.16;79.53
61697;BME280;47610;52.252;20.922;2022-11-03T03:15:12;100867.17;;;7.13;79.79
61697;BME280;47610;52.252;20.922;2022-11-03T03:20:43;100868.48;;;7.11;79.90
61697;BME280;47610;52.252;20.922;2022-11-03T03:26:14;100872.08;;;7.08;80.11
61697;BME280;47610;52.252;20.922;2022-11-03T03:31:42;100872.30;;;7.04;80.17
61697;BME280;47610;52.252;20.922;2022-11-03T03:37:08;100869.23;;;6.98;80.42
61697;BME280;47610;52.252;20.922;2022-11-03T03:42:35;100875.38;;;6.93;80.38
61697;BME280;47610;52.252;20.922;2022-11-03T03:48:00;100881.29;;;6.91;80.54
61697;BME280;47610;52.252;20.922;2022-11-03T03:53:26;100885.33;;;6.88;80.44
61697;BME280;47610;52.252;20.922;2022-11-03T03:58:51;100884.10;;;6.85;80.54
61697;BME280;47610;52.252;20.922;2022-11-03T04:04:13;100891.89;;;6.82;80.75
61697;BME280;47610;52.252;20.922;2022-11-03T04:09:38;100890.00;;;6.77;80.84
61697;BME280;47610;52.252;20.922;2022-11-03T04:15:03;100897.61;;;6.75;80.91
61697;BME280;47610;52.252;20.922;2022-11-03T04:20:28;100895.81;;;6.72;80.69
61697;BME280;47610;52.252;20.922;2022-11-03T04:25:53;100894.70;;;6.68;81.10
61697;BME280;47610;52.252;20.922;2022-11-03T04:31:18;100893.73;;;6.66;81.09
61697;BME280;47610;52.252;20.922;2022-11-03T04:36:42;100900.00;;;6.63;80.94
61697;BME280;47610;52.252;20.922;2022-11-03T04:42:14;100903.89;;;6.60;81.01
61697;BME280;47610;52.252;20.922;2022-11-03T04:47:41;100905.20;;;6.58;80.98
61697;BME280;47610;52.252;20.922;2022-11-03T04:53:10;100902.35;;;6.54;81.02
61697;BME280;47610;52.252;20.922;2022-11-03T04:58:35;100904.55;;;6.52;81.08
61697;BME280;47610;52.252;20.922;2022-11-03T05:04:00;100900.00;;;6.49;81.04
61697;BME280;47610;52.252;20.922;2022-11-03T05:09:25;100901.89;;;6.46;80.98
61697;BME280;47610;52.252;20.922;2022-11-03T05:14:50;100909.30;;;6.43;81.11
61697;BME280;47610;52.252;20.922;2022-11-03T05:20:30;100913.60;;;6.40;81.16
61697;BME280;47610;52.252;20.922;2022-11-03T05:25:55;100912.27;;;6.37;81.40
61697;BME280;47610;52.252;20.922;2022-11-03T05:31:25;100917.33;;;6.34;81.47
61697;BME280;47610;52.252;20.922;2022-11-03T05:36:50;100915.58;;;6.32;81.55
61697;BME280;47610;52.252;20.922;2022-11-03T05:42:23;100914.23;;;6.29;81.54
61697;BME280;47610;52.252;20.922;2022-11-03T05:47:51;100914.41;;;6.28;81.49
61697;BME280;47610;52.252;20.922;2022-11-03T05:53:30;100915.39;;;6.30;81.51
61697;BME280;47610;52.252;20.922;2022-11-03T05:58:55;100919.42;;;6.31;81.76
61697;BME280;47610;52.252;20.922;2022-11-03T06:04:20;100921.56;;;6.34;81.60
61697;BME280;47610;52.252;20.922;2022-11-03T06:09:46;100923.55;;;6.37;81.74
61697;BME280;47610;52.252;20.922;2022-11-03T06:15:33;100930.91;;;6.36;81.31
61697;BME280;47610;52.252;20.922;2022-11-03T06:21:00;100939.91;;;6.37;81.41
61697;BME280;47610;52.252;20.922;2022-11-03T06:26:26;100943.55;;;6.41;81.67
61697;BME280;47610;52.252;20.922;2022-11-03T06:31:53;100946.19;;;6.44;81.61
61697;BME280;47610;52.252;20.922;2022-11-03T06:37:21;100946.30;;;6.48;81.25
61697;BME280;47610;52.252;20.922;2022-11-03T06:42:44;100945.98;;;6.53;81.24
61697;BME280;47610;52.252;20.922;2022-11-03T06:48:15;100945.27;;;6.59;81.01
61697;BME280;47610;52.252;20.922;2022-11-03T06:53:43;100948.80;;;6.69;81.06
61697;BME280;47610;52.252;20.922;2022-11-03T06:59:12;100956.36;;;6.76;80.64
61697;BME280;47610;52.252;20.922;2022-11-03T07:04:35;100950.67;;;6.81;80.68
61697;BME280;47610;52.252;20.922;2022-11-03T07:09:58;100952.00;;;6.90;80.65
61697;BME280;47610;52.252;20.922;2022-11-03T07:15:29;100949.23;;;7.01;80.39
61697;BME280;47610;52.252;20.922;2022-11-03T07:20:55;100949.98;;;7.15;80.11
61697;BME280;47610;52.252;20.922;2022-11-03T07:26:35;100951.22;;;7.33;80.37
61697;BME280;47610;52.252;20.922;2022-11-03T07:32:04;100941.70;;;7.60;79.67
61697;BME280;47610;52.252;20.922;2022-11-03T07:37:36;100942.80;;;8.36;79.21
61697;BME280;47610;52.252;20.922;2022-11-03T07:43:07;100939.41;;;9.27;77.83
61697;BME280;47610;52.252;20.922;2022-11-03T07:48:45;100937.21;;;10.64;75.82
61697;BME280;47610;52.252;20.922;2022-11-03T07:54:17;100937.36;;;11.46;73.28
61697;BME280;47610;52.252;20.922;2022-11-03T07:59:43;100935.54;;;12.14;71.49
61697;BME280;47610;52.252;20.922;2022-11-03T08:05:08;100938.38;;;13.09;69.20
61697;BME280;47610;52.252;20.922;2022-11-03T08:10:33;100939.05;;;13.85;66.63
61697;BME280;47610;52.252;20.922;2022-11-03T08:15:58;100941.06;;;14.15;64.67
61697;BME280;47610;52.252;20.922;2022-11-03T08:21:22;100936.15;;;14.22;63.43
61697;BME280;47610;52.252;20.922;2022-11-03T08:26:47;100926.96;;;14.29;62.44
61697;BME280;47610;52.252;20.922;2022-11-03T08:32:09;100928.09;;;14.25;61.93
61697;BME280;47610;52.252;20.922;2022-11-03T08:37:35;100930.66;;;14.24;61.14
61697;BME280;47610;52.252;20.922;2022-11-03T08:43:00;100929.45;;;14.28;61.06
61697;BME280;47610;52.252;20.922;2022-11-03T08:48:28;100929.63;;;14.19;60.79
61697;BME280;47610;52.252;20.922;2022-11-03T08:53:51;100931.54;;;14.16;60.28
61697;BME280;47610;52.252;20.922;2022-11-03T08:59:15;100923.43;;;14.43;60.12
61697;BME280;47610;52.252;20.922;2022-11-03T09:04:39;100928.15;;;14.74;59.65
61697;BME280;47610;52.252;20.922;2022-11-03T09:10:04;100922.67;;;15.24;58.45
61697;BME280;47610;52.252;20.922;2022-11-03T09:15:30;100928.91;;;16.09;57.41
61697;BME280;47610;52.252;20.922;2022-11-03T09:20:52;100928.21;;;16.82;55.79
61697;BME280;47610;52.252;20.922;2022-11-03T09:26:17;100927.34;;;16.52;54.87
61697;BME280;47610;52.252;20.922;2022-11-03T09:31:44;100923.01;;;16.27;54.56
61697;BME280;47610;52.252;20.922;2022-11-03T09:37:08;100915.08;;;16.47;54.55
61697;BME280;47610;52.252;20.922;2022-11-03T09:42:32;100917.67;;;16.89;53.46
61697;BME280;47610;52.252;20.922;2022-11-03T09:47:59;100913.73;;;17.17;52.33
61697;BME280;47610;52.252;20.922;2022-11-03T09:53:22;100910.05;;;17.08;52.26
61697;BME280;47610;52.252;20.922;2022-11-03T09:58:49;100901.74;;;16.84;52.39
61697;BME280;47610;52.252;20.922;2022-11-03T10:04:15;100890.73;;;16.31;52.57
61697;BME280;47610;52.252;20.922;2022-11-03T10:09:46;100887.63;;;15.92;53.68
61697;BME280;47610;52.252;20.922;2022-11-03T10:15:15;100879.09;;;15.70;54.36
61697;BME280;47610;52.252;20.922;2022-11-03T10:20:47;100876.06;;;15.62;54.76
61697;BME280;47610;52.252;20.922;2022-11-03T10:26:16;100867.62;;;15.46;54.43
61697;BME280;47610;52.252;20.922;2022-11-03T10:31:44;100864.78;;;15.37;54.88
61697;BME280;47610;52.252;20.922;2022-11-03T10:37:26;100860.29;;;15.28;55.12
61697;BME280;47610;52.252;20.922;2022-11-03T10:43:14;100861.63;;;15.26;55.52
61697;BME280;47610;52.252;20.922;2022-11-03T10:48:38;100852.39;;;15.24;55.23
61697;BME280;47610;52.252;20.922;2022-11-03T10:54:09;100850.23;;;15.28;54.91
61697;BME280;47610;52.252;20.922;2022-11-03T10:59:40;100844.23;;;15.29;54.88
61697;BME280;47610;52.252;20.922;2022-11-03T11:05:17;100835.94;;;15.28;54.75
61697;BME280;47610;52.252;20.922;2022-11-03T11:10:47;100829.86;;;15.30;54.04
61697;BME280;47610;52.252;20.922;2022-11-03T11:16:50;100826.95;;;15.24;54.00
61697;BME280;47610;52.252;20.922;2022-11-03T11:22:23;100818.19;;;15.23;53.92
61697;BME280;47610;52.252;20.922;2022-11-03T11:28:23;100806.45;;;15.26;53.59
61697;BME280;47610;52.252;20.922;2022-11-03T11:33:48;100805.53;;;15.33;52.95
61697;BME280;47610;52.252;20.922;2022-11-03T11:39:18;100794.86;;;15.42;52.67
61697;BME280;47610;52.252;20.922;2022-11-03T11:45:08;100788.57;;;15.44;52.16
61697;BME280;47610;52.252;20.922;2022-11-03T11:50:35;100782.98;;;15.40;51.45
61697;BME280;47610;52.252;20.922;2022-11-03T11:56:02;100776.79;;;15.34;51.51
61697;BME280;47610;52.252;20.922;2022-11-03T12:01:30;100766.63;;;15.21;50.83
61697;BME280;47610;52.252;20.922;2022-11-03T12:07:29;100764.48;;;15.02;50.76
61697;BME280;47610;52.252;20.922;2022-11-03T12:13:00;100763.10;;;14.73;50.51
61697;BME280;47610;52.252;20.922;2022-11-03T12:24:51;100749.94;;;14.43;51.05
61697;BME280;47610;52.252;20.922;2022-11-03T12:30:31;100743.31;;;14.42;51.55
61697;BME280;47610;52.252;20.922;2022-11-03T12:35:57;100743.98;;;14.41;51.65
61697;BME280;47610;52.252;20.922;2022-11-03T12:41:21;100739.73;;;14.40;51.53
61697;BME280;47610;52.252;20.922;2022-11-03T12:46:58;100736.84;;;14.34;51.51
61697;BME280;47610;52.252;20.922;2022-11-03T12:52:24;100736.30;;;14.22;51.62
61697;BME280;47610;52.252;20.922;2022-11-03T12:57:49;100731.74;;;14.17;51.62
61697;BME280;47610;52.252;20.922;2022-11-03T13:03:43;100721.84;;;14.15;52.04
61697;BME280;47610;52.252;20.922;2022-11-03T13:09:21;100721.78;;;14.17;51.99
61697;BME280;47610;52.252;20.922;2022-11-03T13:20:50;100720.22;;;14.05;51.67
61697;BME280;47610;52.252;20.922;2022-11-03T13:26:20;100714.70;;;13.97;51.46
61697;BME280;47610;52.252;20.922;2022-11-03T13:31:50;100714.01;;;13.87;51.46
61697;BME280;47610;52.252;20.922;2022-11-03T13:37:18;100711.45;;;13.82;51.37
61697;BME280;47610;52.252;20.922;2022-11-03T13:43:06;100706.33;;;13.79;51.44
61697;BME280;47610;52.252;20.922;2022-11-03T13:48:40;100699.53;;;13.71;51.13
61697;BME280;47610;52.252;20.922;2022-11-03T14:05:57;100682.91;;;13.38;51.81
61697;BME280;47610;52.252;20.922;2022-11-03T14:16:56;100683.27;;;13.00;51.57
61697;BME280;47610;52.252;20.922;2022-11-03T14:22:19;100672.34;;;12.91;52.23
61697;BME280;47610;52.252;20.922;2022-11-03T14:27:45;100675.17;;;12.85;52.40
61697;BME280;47610;52.252;20.922;2022-11-03T14:33:09;100671.36;;;12.74;52.52
61697;BME280;47610;52.252;20.922;2022-11-03T14:38:40;100668.48;;;12.64;52.96
61697;BME280;47610;52.252;20.922;2022-11-03T14:44:22;100665.09;;;12.52;53.35
61697;BME280;47610;52.252;20.922;2022-11-03T14:50:37;100658.25;;;12.33;53.82
61697;BME280;47610;52.252;20.922;2022-11-03T14:56:11;100655.83;;;12.13;54.77
61697;BME280;47610;52.252;20.922;2022-11-03T15:01:34;100650.39;;;11.96;55.07
61697;BME280;47610;52.252;20.922;2022-11-03T15:07:12;100649.45;;;11.79;55.54
61697;BME280;47610;52.252;20.922;2022-11-03T15:12:53;100647.13;;;11.58;56.01
61697;BME280;47610;52.252;20.922;2022-11-03T15:18:23;100646.19;;;11.41;56.34
61697;BME280;47610;52.252;20.922;2022-11-03T15:24:05;100646.73;;;11.28;57.17
61697;BME280;47610;52.252;20.922;2022-11-03T15:29:31;100640.60;;;11.16;57.76
61697;BME280;47610;52.252;20.922;2022-11-03T15:34:55;100633.10;;;11.04;58.29
61697;BME280;47610;52.252;20.922;2022-11-03T15:40:32;100628.88;;;10.94;58.75
61697;BME280;47610;52.252;20.922;2022-11-03T15:45:55;100619.96;;;10.73;59.00
61697;BME280;47610;52.252;20.922;2022-11-03T15:51:21;100606.59;;;10.48;59.63
61697;BME280;47610;52.252;20.922;2022-11-03T15:56:54;100604.13;;;10.35;59.96
61697;BME280;47610;52.252;20.922;2022-11-03T16:02:29;100602.46;;;10.24;60.53
61697;BME280;47610;52.252;20.922;2022-11-03T16:07:53;100599.75;;;10.11;60.82
61697;BME280;47610;52.252;20.922;2022-11-03T16:13:16;100597.95;;;9.97;61.38
61697;BME280;47610;52.252;20.922;2022-11-03T16:18:40;100591.57;;;9.86;61.72
61697;BME280;47610;52.252;20.922;2022-11-03T16:24:04;100593.45;;;9.77;61.76
61697;BME280;47610;52.252;20.922;2022-11-03T16:29:31;100585.61;;;9.64;62.38
61697;BME280;47610;52.252;20.922;2022-11-03T16:34:59;100580.63;;;9.52;62.93
61697;BME280;47610;52.252;20.922;2022-11-03T16:40:38;100570.78;;;9.36;63.14
61697;BME280;47610;52.252;20.922;2022-11-03T16:46:13;100568.92;;;9.23;63.60
61697;BME280;47610;52.252;20.922;2022-11-03T16:51:40;100552.52;;;9.13;63.72
61697;BME280;47610;52.252;20.922;2022-11-03T16:57:07;100529.33;;;9.04;63.86
61697;BME280;47610;52.252;20.922;2022-11-03T17:02:32;100527.73;;;9.10;63.98
61697;BME280;47610;52.252;20.922;2022-11-03T17:07:56;100520.82;;;9.12;64.03
61697;BME280;47610;52.252;20.922;2022-11-03T17:13:21;100510.93;;;9.11;63.89
61697;BME280;47610;52.252;20.922;2022-11-03T17:18:46;100503.89;;;9.10;63.91
61697;BME280;47610;52.252;20.922;2022-11-03T17:30:16;100492.77;;;9.09;64.00
61697;BME280;47610;52.252;20.922;2022-11-03T17:35:41;100495.73;;;9.13;64.05
61697;BME280;47610;52.252;20.922;2022-11-03T17:41:03;100495.20;;;9.15;64.17
61697;BME280;47610;52.252;20.922;2022-11-03T17:46:25;100493.70;;;9.21;64.17
61697;BME280;47610;52.252;20.922;2022-11-03T18:15:44;100492.94;;;9.28;64.43
61697;BME280;47610;52.252;20.922;2022-11-03T18:21:12;100490.81;;;9.24;64.56
61697;BME280;47610;52.252;20.922;2022-11-03T18:26:35;100481.23;;;9.20;64.68
61697;BME280;47610;52.252;20.922;2022-11-03T18:31:57;100478.41;;;9.17;64.95
61697;BME280;47610;52.252;20.922;2022-11-03T18:37:20;100470.41;;;9.14;65.07
61697;BME280;47610;52.252;20.922;2022-11-03T18:42:43;100459.46;;;9.11;65.14
61697;BME280;47610;52.252;20.922;2022-11-03T18:48:06;100455.20;;;9.06;65.46
61697;BME280;47610;52.252;20.922;2022-11-03T18:53:29;100451.16;;;9.03;65.61
61697;BME280;47610;52.252;20.922;2022-11-03T18:58:54;100442.72;;;8.95;65.97
61697;BME280;47610;52.252;20.922;2022-11-03T19:04:16;100434.22;;;8.89;66.27
61697;BME280;47610;52.252;20.922;2022-11-03T19:09:41;100420.23;;;8.83;66.43
61697;BME280;47610;52.252;20.922;2022-11-03T19:15:08;100408.41;;;8.81;66.73
61697;BME280;47610;52.252;20.922;2022-11-03T19:20:32;100403.73;;;8.79;66.66
61697;BME280;47610;52.252;20.922;2022-11-03T19:26:01;100397.93;;;8.75;67.05
61697;BME280;47610;52.252;20.922;2022-11-03T19:31:29;100390.05;;;8.72;67.25
61697;BME280;47610;52.252;20.922;2022-11-03T19:36:52;100391.30;;;8.69;67.41
61697;BME280;47610;52.252;20.922;2022-11-03T19:42:17;100388.96;;;8.64;67.59
61697;BME280;47610;52.252;20.922;2022-11-03T19:47:43;100379.55;;;8.60;67.83
61697;BME280;47610;52.252;20.922;2022-11-03T19:53:10;100368.58;;;8.59;68.00
61697;BME280;47610;52.252;20.922;2022-11-03T19:58:35;100363.60;;;8.56;68.08
61697;BME280;47610;52.252;20.922;2022-11-03T20:03:57;100363.31;;;8.54;68.23
61697;BME280;47610;52.252;20.922;2022-11-03T20:09:19;100359.05;;;8.50;68.42
61697;BME280;47610;52.252;20.922;2022-11-03T20:14:43;100347.33;;;8.44;68.60
61697;BME280;47610;52.252;20.922;2022-11-03T20:20:10;100345.39;;;8.43;68.66
61697;BME280;47610;52.252;20.922;2022-11-03T20:25:35;100346.20;;;8.38;68.74
61697;BME280;47610;52.252;20.922;2022-11-03T20:31:01;100343.35;;;8.32;68.90
61697;BME280;47610;52.252;20.922;2022-11-03T20:36:23;100341.93;;;8.25;69.05
61697;BME280;47610;52.252;20.922;2022-11-03T20:41:47;100338.46;;;8.18;69.38
61697;BME280;47610;52.252;20.922;2022-11-03T20:47:12;100326.19;;;8.14;69.48
61697;BME280;47610;52.252;20.922;2022-11-03T20:52:34;100323.19;;;8.09;69.56
61697;BME280;47610;52.252;20.922;2022-11-03T20:57:56;100312.29;;;8.03;70.18
61697;BME280;47610;52.252;20.922;2022-11-03T21:03:21;100302.39;;;7.94;70.19
61697;BME280;47610;52.252;20.922;2022-11-03T21:08:45;100296.58;;;7.87;70.57
61697;BME280;47610;52.252;20.922;2022-11-03T21:14:14;100291.56;;;7.79;70.65
61697;BME280;47610;52.252;20.922;2022-11-03T21:19:37;100278.86;;;7.70;70.97
61697;BME280;47610;52.252;20.922;2022-11-03T21:25:00;100268.59;;;7.61;71.56
61697;BME280;47610;52.252;20.922;2022-11-03T21:30:25;100250.16;;;7.54;71.41
61697;BME280;47610;52.252;20.922;2022-11-03T21:35:49;100244.02;;;7.48;71.83
61697;BME280;47610;52.252;20.922;2022-11-03T21:41:11;100241.52;;;7.44;71.82
61697;BME280;47610;52.252;20.922;2022-11-03T21:46:34;100235.66;;;7.39;72.20
61697;BME280;47610;52.252;20.922;2022-11-03T21:51:59;100218.49;;;7.36;72.32
61697;BME280;47610;52.252;20.922;2022-11-03T21:57:21;100226.35;;;7.33;72.35
61697;BME280;47610;52.252;20.922;2022-11-03T22:02:43;100231.11;;;7.28;72.80
61697;BME280;47610;52.252;20.922;2022-11-03T22:08:08;100220.73;;;7.26;73.09
61697;BME280;47610;52.252;20.922;2022-11-03T22:13:30;100214.87;;;7.25;73.08
61697;BME280;47610;52.252;20.922;2022-11-03T22:18:52;100212.60;;;7.23;72.90
61697;BME280;47610;52.252;20.922;2022-11-03T22:24:15;100213.41;;;7.23;73.36
61697;BME280;47610;52.252;20.922;2022-11-03T22:29:37;100200.81;;;7.21;73.22
61697;BME280;47610;52.252;20.922;2022-11-03T22:35:02;100196.75;;;7.19;73.43
61697;BME280;47610;52.252;20.922;2022-11-03T22:40:24;100181.10;;;7.16;73.46
61697;BME280;47610;52.252;20.922;2022-11-03T22:45:46;100181.80;;;7.15;73.55
61697;BME280;47610;52.252;20.922;2022-11-03T22:51:11;100175.65;;;7.12;73.31
61697;BME280;47610;52.252;20.922;2022-11-03T22:56:32;100179.96;;;7.12;73.33
61697;BME280;47610;52.252;20.922;2022-11-03T23:01:54;100181.27;;;7.11;73.40
61697;BME280;47610;52.252;20.922;2022-11-03T23:07:17;100167.46;;;7.09;73.35
61697;BME280;47610;52.252;20.922;2022-11-03T23:12:39;100161.98;;;7.10;73.46
61697;BME280;47610;52.252;20.922;2022-11-03T23:18:02;100150.70;;;7.10;73.48
61697;BME280;47610;52.252;20.922;2022-11-03T23:23:26;100148.95;;;7.09;73.33
61697;BME280;47610;52.252;20.922;2022-11-03T23:28:51;100145.08;;;7.05;73.44
61697;BME280;47610;52.252;20.922;2022-11-03T23:34:15;100137.61;;;7.02;73.23
61697;BME280;47610;52.252;20.922;2022-11-03T23:39:38;100130.69;;;6.99;73.20
61697;BME280;47610;52.252;20.922;2022-11-03T23:45:03;100132.00;;;6.94;73.30
61697;BME280;47610;52.252;20.922;2022-11-03T23:50:26;100126.27;;;6.89;73.39
61697;BME280;47610;52.252;20.922;2022-11-03T23:55:49;100119.05;;;6.81;73.77
